KBIH/BIH METAR and TAF weather

Enter ICAO airport designator
Station Type Date Time Source
KBIH METAR 2020/03/31 21:56 UTC NOAA

KBIH 312156Z AUTO 15006KT 10SM CLR 24/M04 A2995 RMK AO2 SLP116 T02441039


Station Type Date Time Source
KBIH Decoded METAR 2020/03/31 21:56 UTC NOAA

BISHOP AIRPORT, CA, United States (KBIH) 37-22N 118-22W 1253M
Mar 31, 2020 - 05:56 PM EDT / 2020.03.31 2156 UTC
Wind: from the SSE (150 degrees) at 7 MPH (6 KT):0
Visibility: 10 mile(s):0
Sky conditions: clear
Temperature: 75.9 F (24.4 C)
Dew Point: 25.0 F (-3.9 C)
Relative Humidity: 14%
Pressure (altimeter): 29.95 in. Hg (1014 hPa)
ob: KBIH 312156Z AUTO 15006KT 10SM CLR 24/M04 A2995 RMK AO2 SLP116 T02441039
cycle: 22

Station Type Date Time Source
KBIH TAF 2020/03/31 18:22 UTC NOAA

TAF KBIH 311720Z 3118/0118 VRB05KT P6SM SKC
FM312200 17008KT P6SM SKC
FM010100 25010KT P6SM SKC
FM010500 32009KT P6SM FEW200

Example: see airport list